sensor_id;sensor_type;location;lat;lon;timestamp;P1;durP1;ratioP1;P2;durP2;ratioP2
9166;SDS011;4618;48.818;9.088;2023-06-14T00:01:02;7.20;;;4.37;;
9166;SDS011;4618;48.818;9.088;2023-06-14T00:03:28;7.73;;;4.80;;
9166;SDS011;4618;48.818;9.088;2023-06-14T00:05:54;7.57;;;4.70;;
9166;SDS011;4618;48.818;9.088;2023-06-14T00:08:19;5.63;;;4.50;;
9166;SDS011;4618;48.818;9.088;2023-06-14T00:10:48;6.03;;;4.03;;
9166;SDS011;4618;48.818;9.088;2023-06-14T00:13:14;5.87;;;4.33;;
9166;SDS011;4618;48.818;9.088;2023-06-14T00:15:39;5.53;;;4.30;;
9166;SDS011;4618;48.818;9.088;2023-06-14T00:18:05;4.50;;;4.10;;
9166;SDS011;4618;48.818;9.088;2023-06-14T00:20:31;5.60;;;4.40;;
9166;SDS011;4618;48.818;9.088;2023-06-14T00:23:01;4.73;;;4.23;;
9166;SDS011;4618;48.818;9.088;2023-06-14T00:25:27;6.77;;;4.20;;
9166;SDS011;4618;48.818;9.088;2023-06-14T00:27:53;10.47;;;4.60;;
9166;SDS011;4618;48.818;9.088;2023-06-14T00:30:20;7.77;;;4.47;;
9166;SDS011;4618;48.818;9.088;2023-06-14T00:32:46;7.10;;;4.13;;
9166;SDS011;4618;48.818;9.088;2023-06-14T00:35:12;7.57;;;4.53;;
9166;SDS011;4618;48.818;9.088;2023-06-14T00:37:38;5.53;;;4.40;;
9166;SDS011;4618;48.818;9.088;2023-06-14T00:40:04;8.10;;;4.30;;
9166;SDS011;4618;48.818;9.088;2023-06-14T00:42:30;6.07;;;4.77;;
9166;SDS011;4618;48.818;9.088;2023-06-14T00:44:56;8.60;;;4.43;;
9166;SDS011;4618;48.818;9.088;2023-06-14T00:47:22;5.27;;;4.30;;
9166;SDS011;4618;48.818;9.088;2023-06-14T00:49:48;4.20;;;3.73;;
9166;SDS011;4618;48.818;9.088;2023-06-14T00:52:16;7.37;;;4.33;;
9166;SDS011;4618;48.818;9.088;2023-06-14T00:54:42;4.73;;;4.23;;
9166;SDS011;4618;48.818;9.088;2023-06-14T00:57:09;5.77;;;4.50;;
9166;SDS011;4618;48.818;9.088;2023-06-14T00:59:41;5.57;;;5.00;;
9166;SDS011;4618;48.818;9.088;2023-06-14T01:02:09;7.80;;;5.10;;
9166;SDS011;4618;48.818;9.088;2023-06-14T01:04:35;7.17;;;4.60;;
9166;SDS011;4618;48.818;9.088;2023-06-14T01:09:58;6.10;;;4.50;;
9166;SDS011;4618;48.818;9.088;2023-06-14T01:12:38;8.87;;;4.33;;
9166;SDS011;4618;48.818;9.088;2023-06-14T01:15:11;6.80;;;4.60;;
9166;SDS011;4618;48.818;9.088;2023-06-14T01:17:38;5.90;;;4.60;;
9166;SDS011;4618;48.818;9.088;2023-06-14T01:20:08;5.10;;;4.60;;
9166;SDS011;4618;48.818;9.088;2023-06-14T01:22:50;5.23;;;4.43;;
9166;SDS011;4618;48.818;9.088;2023-06-14T01:25:17;5.77;;;4.73;;
9166;SDS011;4618;48.818;9.088;2023-06-14T01:27:48;5.47;;;4.30;;
9166;SDS011;4618;48.818;9.088;2023-06-14T01:30:23;5.23;;;4.57;;
9166;SDS011;4618;48.818;9.088;2023-06-14T01:32:50;5.20;;;4.70;;
9166;SDS011;4618;48.818;9.088;2023-06-14T01:35:17;4.73;;;4.33;;
9166;SDS011;4618;48.818;9.088;2023-06-14T01:37:43;7.47;;;5.10;;
9166;SDS011;4618;48.818;9.088;2023-06-14T01:40:12;8.00;;;5.30;;
9166;SDS011;4618;48.818;9.088;2023-06-14T01:42:40;5.30;;;4.90;;
9166;SDS011;4618;48.818;9.088;2023-06-14T01:45:06;6.90;;;5.17;;
9166;SDS011;4618;48.818;9.088;2023-06-14T01:47:34;5.07;;;4.57;;
9166;SDS011;4618;48.818;9.088;2023-06-14T01:50:01;7.00;;;5.50;;
9166;SDS011;4618;48.818;9.088;2023-06-14T01:52:29;6.37;;;5.37;;
9166;SDS011;4618;48.818;9.088;2023-06-14T01:54:55;5.87;;;5.27;;
9166;SDS011;4618;48.818;9.088;2023-06-14T01:57:21;5.53;;;5.03;;
9166;SDS011;4618;48.818;9.088;2023-06-14T01:59:48;6.87;;;5.50;;
9166;SDS011;4618;48.818;9.088;2023-06-14T02:02:14;5.43;;;4.80;;
9166;SDS011;4618;48.818;9.088;2023-06-14T02:04:40;5.37;;;4.57;;
9166;SDS011;4618;48.818;9.088;2023-06-14T02:07:06;6.00;;;4.90;;
9166;SDS011;4618;48.818;9.088;2023-06-14T02:09:33;6.90;;;5.60;;
9166;SDS011;4618;48.818;9.088;2023-06-14T02:11:59;5.40;;;4.80;;
9166;SDS011;4618;48.818;9.088;2023-06-14T02:14:25;6.07;;;4.50;;
9166;SDS011;4618;48.818;9.088;2023-06-14T02:16:51;5.03;;;4.50;;
9166;SDS011;4618;48.818;9.088;2023-06-14T02:19:18;6.33;;;4.83;;
9166;SDS011;4618;48.818;9.088;2023-06-14T02:21:45;5.40;;;4.97;;
9166;SDS011;4618;48.818;9.088;2023-06-14T02:24:12;7.40;;;4.80;;
9166;SDS011;4618;48.818;9.088;2023-06-14T02:26:38;7.87;;;4.87;;
9166;SDS011;4618;48.818;9.088;2023-06-14T02:29:04;6.40;;;4.90;;
9166;SDS011;4618;48.818;9.088;2023-06-14T02:31:30;6.23;;;4.57;;
9166;SDS011;4618;48.818;9.088;2023-06-14T02:33:58;6.97;;;5.30;;
9166;SDS011;4618;48.818;9.088;2023-06-14T02:36:24;8.90;;;4.63;;
9166;SDS011;4618;48.818;9.088;2023-06-14T02:38:49;9.10;;;5.47;;
9166;SDS011;4618;48.818;9.088;2023-06-14T02:41:15;6.33;;;5.50;;
9166;SDS011;4618;48.818;9.088;2023-06-14T02:43:41;5.97;;;5.33;;
9166;SDS011;4618;48.818;9.088;2023-06-14T02:46:06;5.70;;;5.10;;
9166;SDS011;4618;48.818;9.088;2023-06-14T02:48:32;7.60;;;5.07;;
9166;SDS011;4618;48.818;9.088;2023-06-14T02:50:58;7.50;;;5.37;;
9166;SDS011;4618;48.818;9.088;2023-06-14T02:53:23;6.13;;;5.40;;
9166;SDS011;4618;48.818;9.088;2023-06-14T02:55:49;6.00;;;5.40;;
9166;SDS011;4618;48.818;9.088;2023-06-14T02:58:14;6.47;;;5.83;;
9166;SDS011;4618;48.818;9.088;2023-06-14T03:00:41;6.17;;;5.57;;
9166;SDS011;4618;48.818;9.088;2023-06-14T03:03:07;6.00;;;5.40;;
9166;SDS011;4618;48.818;9.088;2023-06-14T03:05:38;6.17;;;5.40;;
9166;SDS011;4618;48.818;9.088;2023-06-14T03:08:06;6.10;;;5.57;;
9166;SDS011;4618;48.818;9.088;2023-06-14T03:10:32;5.77;;;5.27;;
9166;SDS011;4618;48.818;9.088;2023-06-14T03:12:58;6.20;;;5.50;;
9166;SDS011;4618;48.818;9.088;2023-06-14T03:15:23;6.20;;;5.60;;
9166;SDS011;4618;48.818;9.088;2023-06-14T03:17:49;8.60;;;5.63;;
9166;SDS011;4618;48.818;9.088;2023-06-14T03:20:15;7.37;;;5.60;;
9166;SDS011;4618;48.818;9.088;2023-06-14T03:22:42;7.30;;;5.77;;
9166;SDS011;4618;48.818;9.088;2023-06-14T03:25:10;7.57;;;5.43;;
9166;SDS011;4618;48.818;9.088;2023-06-14T03:27:37;6.10;;;5.57;;
9166;SDS011;4618;48.818;9.088;2023-06-14T03:30:03;5.80;;;5.30;;
9166;SDS011;4618;48.818;9.088;2023-06-14T03:32:29;6.87;;;5.73;;
9166;SDS011;4618;48.818;9.088;2023-06-14T03:34:58;6.47;;;5.90;;
9166;SDS011;4618;48.818;9.088;2023-06-14T03:37:24;5.77;;;5.23;;
9166;SDS011;4618;48.818;9.088;2023-06-14T03:39:50;6.20;;;5.60;;
9166;SDS011;4618;48.818;9.088;2023-06-14T03:42:16;6.17;;;5.57;;
9166;SDS011;4618;48.818;9.088;2023-06-14T03:44:42;6.40;;;5.50;;
9166;SDS011;4618;48.818;9.088;2023-06-14T03:47:07;7.73;;;6.33;;
9166;SDS011;4618;48.818;9.088;2023-06-14T03:49:33;6.27;;;5.73;;
9166;SDS011;4618;48.818;9.088;2023-06-14T03:51:59;6.30;;;5.70;;
9166;SDS011;4618;48.818;9.088;2023-06-14T03:54:25;9.57;;;5.77;;
9166;SDS011;4618;48.818;9.088;2023-06-14T03:56:52;7.40;;;5.60;;
9166;SDS011;4618;48.818;9.088;2023-06-14T03:59:17;6.60;;;6.00;;
9166;SDS011;4618;48.818;9.088;2023-06-14T04:01:43;6.07;;;5.57;;
9166;SDS011;4618;48.818;9.088;2023-06-14T04:04:09;7.33;;;5.60;;
9166;SDS011;4618;48.818;9.088;2023-06-14T04:06:35;5.73;;;5.20;;
9166;SDS011;4618;48.818;9.088;2023-06-14T04:09:02;7.07;;;5.63;;
9166;SDS011;4618;48.818;9.088;2023-06-14T04:11:28;6.67;;;5.53;;
9166;SDS011;4618;48.818;9.088;2023-06-14T04:13:54;9.57;;;5.87;;
9166;SDS011;4618;48.818;9.088;2023-06-14T04:16:21;5.83;;;5.33;;
9166;SDS011;4618;48.818;9.088;2023-06-14T04:18:47;8.73;;;5.37;;
9166;SDS011;4618;48.818;9.088;2023-06-14T04:21:16;6.07;;;5.47;;
9166;SDS011;4618;48.818;9.088;2023-06-14T04:23:42;6.13;;;5.33;;
9166;SDS011;4618;48.818;9.088;2023-06-14T04:26:08;6.00;;;5.40;;
9166;SDS011;4618;48.818;9.088;2023-06-14T04:28:35;6.67;;;5.80;;
9166;SDS011;4618;48.818;9.088;2023-06-14T04:31:08;7.07;;;5.70;;
9166;SDS011;4618;48.818;9.088;2023-06-14T04:33:37;7.50;;;5.50;;
9166;SDS011;4618;48.818;9.088;2023-06-14T04:36:10;9.23;;;5.77;;
9166;SDS011;4618;48.818;9.088;2023-06-14T04:38:42;6.20;;;5.60;;
9166;SDS011;4618;48.818;9.088;2023-06-14T04:41:10;6.40;;;5.83;;
9166;SDS011;4618;48.818;9.088;2023-06-14T04:43:36;9.97;;;5.53;;
9166;SDS011;4618;48.818;9.088;2023-06-14T04:46:05;6.73;;;5.47;;
9166;SDS011;4618;48.818;9.088;2023-06-14T04:48:36;8.40;;;5.77;;
9166;SDS011;4618;48.818;9.088;2023-06-14T04:51:02;6.20;;;5.53;;
9166;SDS011;4618;48.818;9.088;2023-06-14T04:53:28;7.77;;;5.90;;
9166;SDS011;4618;48.818;9.088;2023-06-14T04:55:54;8.93;;;6.17;;
9166;SDS011;4618;48.818;9.088;2023-06-14T04:58:20;8.23;;;5.30;;
9166;SDS011;4618;48.818;9.088;2023-06-14T05:00:45;7.23;;;5.87;;
9166;SDS011;4618;48.818;9.088;2023-06-14T05:03:11;6.97;;;6.23;;
9166;SDS011;4618;48.818;9.088;2023-06-14T05:05:38;9.57;;;5.93;;
9166;SDS011;4618;48.818;9.088;2023-06-14T05:08:05;8.67;;;5.90;;
9166;SDS011;4618;48.818;9.088;2023-06-14T05:10:30;6.53;;;5.93;;
9166;SDS011;4618;48.818;9.088;2023-06-14T05:12:56;9.87;;;6.07;;
9166;SDS011;4618;48.818;9.088;2023-06-14T05:15:21;7.53;;;6.07;;
9166;SDS011;4618;48.818;9.088;2023-06-14T05:17:50;6.87;;;6.17;;
9166;SDS011;4618;48.818;9.088;2023-06-14T05:20:20;7.20;;;5.77;;
9166;SDS011;4618;48.818;9.088;2023-06-14T05:22:47;8.60;;;6.23;;
9166;SDS011;4618;48.818;9.088;2023-06-14T05:25:15;6.77;;;5.20;;
9166;SDS011;4618;48.818;9.088;2023-06-14T05:27:40;5.73;;;5.17;;
9166;SDS011;4618;48.818;9.088;2023-06-14T05:30:07;6.07;;;5.27;;
9166;SDS011;4618;48.818;9.088;2023-06-14T05:32:33;6.47;;;5.80;;
9166;SDS011;4618;48.818;9.088;2023-06-14T05:34:59;6.10;;;5.60;;
9166;SDS011;4618;48.818;9.088;2023-06-14T05:37:24;5.40;;;4.90;;
9166;SDS011;4618;48.818;9.088;2023-06-14T05:39:50;7.90;;;5.40;;
9166;SDS011;4618;48.818;9.088;2023-06-14T05:42:15;6.47;;;5.37;;
9166;SDS011;4618;48.818;9.088;2023-06-14T05:44:41;5.77;;;4.80;;
9166;SDS011;4618;48.818;9.088;2023-06-14T05:47:06;7.43;;;5.37;;
9166;SDS011;4618;48.818;9.088;2023-06-14T05:49:32;7.43;;;5.07;;
9166;SDS011;4618;48.818;9.088;2023-06-14T05:51:58;5.77;;;5.17;;
9166;SDS011;4618;48.818;9.088;2023-06-14T05:54:23;7.83;;;5.13;;
9166;SDS011;4618;48.818;9.088;2023-06-14T05:56:49;5.90;;;5.30;;
9166;SDS011;4618;48.818;9.088;2023-06-14T05:59:14;6.00;;;5.40;;
9166;SDS011;4618;48.818;9.088;2023-06-14T06:01:40;8.40;;;5.20;;
9166;SDS011;4618;48.818;9.088;2023-06-14T06:04:05;9.77;;;5.40;;
9166;SDS011;4618;48.818;9.088;2023-06-14T06:06:31;7.63;;;4.83;;
9166;SDS011;4618;48.818;9.088;2023-06-14T06:08:57;8.00;;;5.30;;
9166;SDS011;4618;48.818;9.088;2023-06-14T06:11:23;5.60;;;5.03;;
9166;SDS011;4618;48.818;9.088;2023-06-14T06:13:49;7.80;;;5.27;;
9166;SDS011;4618;48.818;9.088;2023-06-14T06:16:14;10.73;;;5.60;;
9166;SDS011;4618;48.818;9.088;2023-06-14T06:18:40;7.33;;;5.40;;
9166;SDS011;4618;48.818;9.088;2023-06-14T06:21:05;9.63;;;5.30;;
9166;SDS011;4618;48.818;9.088;2023-06-14T06:23:31;6.77;;;5.07;;
9166;SDS011;4618;48.818;9.088;2023-06-14T06:25:57;6.00;;;5.00;;
9166;SDS011;4618;48.818;9.088;2023-06-14T06:28:23;7.53;;;5.17;;
9166;SDS011;4618;48.818;9.088;2023-06-14T06:30:48;6.30;;;4.50;;
9166;SDS011;4618;48.818;9.088;2023-06-14T06:33:15;8.50;;;5.57;;
9166;SDS011;4618;48.818;9.088;2023-06-14T06:35:41;9.00;;;5.10;;
9166;SDS011;4618;48.818;9.088;2023-06-14T06:38:06;7.90;;;5.30;;
9166;SDS011;4618;48.818;9.088;2023-06-14T06:40:33;5.27;;;4.87;;
9166;SDS011;4618;48.818;9.088;2023-06-14T06:42:59;5.17;;;4.67;;
9166;SDS011;4618;48.818;9.088;2023-06-14T06:45:25;5.57;;;4.63;;
9166;SDS011;4618;48.818;9.088;2023-06-14T06:47:50;10.37;;;5.30;;
9166;SDS011;4618;48.818;9.088;2023-06-14T06:50:17;5.27;;;4.83;;
9166;SDS011;4618;48.818;9.088;2023-06-14T06:52:43;6.80;;;4.63;;
9166;SDS011;4618;48.818;9.088;2023-06-14T06:55:10;8.97;;;5.27;;
9166;SDS011;4618;48.818;9.088;2023-06-14T06:57:36;4.90;;;4.50;;
9166;SDS011;4618;48.818;9.088;2023-06-14T07:00:02;6.80;;;4.70;;
9166;SDS011;4618;48.818;9.088;2023-06-14T07:02:30;5.33;;;4.33;;
9166;SDS011;4618;48.818;9.088;2023-06-14T07:04:56;7.13;;;4.63;;
9166;SDS011;4618;48.818;9.088;2023-06-14T07:07:21;7.03;;;5.00;;
9166;SDS011;4618;48.818;9.088;2023-06-14T07:09:47;6.73;;;4.67;;
9166;SDS011;4618;48.818;9.088;2023-06-14T07:12:12;5.30;;;4.90;;
9166;SDS011;4618;48.818;9.088;2023-06-14T07:14:38;5.73;;;4.67;;
9166;SDS011;4618;48.818;9.088;2023-06-14T07:17:04;7.77;;;4.63;;
9166;SDS011;4618;48.818;9.088;2023-06-14T07:19:29;6.80;;;4.83;;
9166;SDS011;4618;48.818;9.088;2023-06-14T07:21:56;8.97;;;4.60;;
9166;SDS011;4618;48.818;9.088;2023-06-14T07:24:23;5.27;;;4.50;;
9166;SDS011;4618;48.818;9.088;2023-06-14T07:26:48;5.27;;;4.50;;
9166;SDS011;4618;48.818;9.088;2023-06-14T07:29:14;6.00;;;4.47;;
9166;SDS011;4618;48.818;9.088;2023-06-14T07:31:41;5.43;;;4.27;;
9166;SDS011;4618;48.818;9.088;2023-06-14T07:34:06;6.00;;;4.30;;
9166;SDS011;4618;48.818;9.088;2023-06-14T07:36:32;7.18;;;4.20;;
9166;SDS011;4618;48.818;9.088;2023-06-14T07:38:58;6.03;;;4.22;;
9166;SDS011;4618;48.818;9.088;2023-06-14T07:41:24;7.70;;;4.25;;
9166;SDS011;4618;48.818;9.088;2023-06-14T07:43:50;4.75;;;4.25;;
9166;SDS011;4618;48.818;9.088;2023-06-14T07:46:16;7.38;;;4.10;;
9166;SDS011;4618;48.818;9.088;2023-06-14T07:48:41;4.78;;;3.78;;
9166;SDS011;4618;48.818;9.088;2023-06-14T07:51:07;4.85;;;3.72;;
9166;SDS011;4618;48.818;9.088;2023-06-14T07:53:33;3.92;;;3.63;;
9166;SDS011;4618;48.818;9.088;2023-06-14T07:55:58;5.05;;;4.03;;
9166;SDS011;4618;48.818;9.088;2023-06-14T07:58:24;8.13;;;3.60;;
9166;SDS011;4618;48.818;9.088;2023-06-14T08:00:51;3.85;;;2.95;;
9166;SDS011;4618;48.818;9.088;2023-06-14T08:03:16;5.38;;;3.95;;
9166;SDS011;4618;48.818;9.088;2023-06-14T08:05:43;5.75;;;4.03;;
9166;SDS011;4618;48.818;9.088;2023-06-14T08:08:09;8.13;;;3.60;;
9166;SDS011;4618;48.818;9.088;2023-06-14T08:10:35;7.55;;;3.80;;
9166;SDS011;4618;48.818;9.088;2023-06-14T08:13:01;6.90;;;3.67;;
9166;SDS011;4618;48.818;9.088;2023-06-14T08:15:27;6.15;;;3.85;;
9166;SDS011;4618;48.818;9.088;2023-06-14T08:17:52;6.25;;;3.70;;
9166;SDS011;4618;48.818;9.088;2023-06-14T08:20:18;4.70;;;4.30;;
9166;SDS011;4618;48.818;9.088;2023-06-14T08:22:44;4.88;;;3.58;;
9166;SDS011;4618;48.818;9.088;2023-06-14T08:25:13;5.60;;;4.05;;
9166;SDS011;4618;48.818;9.088;2023-06-14T08:27:39;5.78;;;3.90;;
9166;SDS011;4618;48.818;9.088;2023-06-14T08:30:05;4.32;;;3.75;;
9166;SDS011;4618;48.818;9.088;2023-06-14T08:32:33;7.95;;;4.35;;
9166;SDS011;4618;48.818;9.088;2023-06-14T08:34:59;8.00;;;4.00;;
9166;SDS011;4618;48.818;9.088;2023-06-14T08:37:25;4.32;;;3.97;;
9166;SDS011;4618;48.818;9.088;2023-06-14T08:39:51;5.20;;;4.28;;
9166;SDS011;4618;48.818;9.088;2023-06-14T08:42:17;5.97;;;3.75;;
9166;SDS011;4618;48.818;9.088;2023-06-14T08:44:46;5.63;;;4.05;;
9166;SDS011;4618;48.818;9.088;2023-06-14T08:47:11;4.20;;;3.80;;
9166;SDS011;4618;48.818;9.088;2023-06-14T08:49:38;6.75;;;3.67;;
9166;SDS011;4618;48.818;9.088;2023-06-14T08:52:05;3.95;;;3.67;;
9166;SDS011;4618;48.818;9.088;2023-06-14T08:54:35;6.22;;;3.83;;
9166;SDS011;4618;48.818;9.088;2023-06-14T08:57:08;5.50;;;4.30;;
9166;SDS011;4618;48.818;9.088;2023-06-14T08:59:37;5.53;;;4.03;;
9166;SDS011;4618;48.818;9.088;2023-06-14T09:02:17;5.55;;;4.18;;
9166;SDS011;4618;48.818;9.088;2023-06-14T09:04:44;4.85;;;3.70;;
9166;SDS011;4618;48.818;9.088;2023-06-14T09:07:10;4.40;;;4.00;;
9166;SDS011;4618;48.818;9.088;2023-06-14T09:09:41;6.45;;;4.03;;
9166;SDS011;4618;48.818;9.088;2023-06-14T09:12:10;5.40;;;3.70;;
9166;SDS011;4618;48.818;9.088;2023-06-14T09:14:36;3.92;;;3.60;;
9166;SDS011;4618;48.818;9.088;2023-06-14T09:17:04;7.32;;;4.15;;
9166;SDS011;4618;48.818;9.088;2023-06-14T09:19:30;6.25;;;3.90;;
9166;SDS011;4618;48.818;9.088;2023-06-14T09:21:56;4.55;;;4.15;;
9166;SDS011;4618;48.818;9.088;2023-06-14T09:24:25;4.97;;;4.10;;
9166;SDS011;4618;48.818;9.088;2023-06-14T09:26:51;6.20;;;3.80;;
9166;SDS011;4618;48.818;9.088;2023-06-14T09:29:17;4.00;;;3.60;;
9166;SDS011;4618;48.818;9.088;2023-06-14T09:31:46;5.05;;;3.40;;
9166;SDS011;4618;48.818;9.088;2023-06-14T09:34:12;5.75;;;3.70;;
9166;SDS011;4618;48.818;9.088;2023-06-14T09:36:40;5.70;;;3.90;;
9166;SDS011;4618;48.818;9.088;2023-06-14T09:39:07;4.10;;;3.65;;
9166;SDS011;4618;48.818;9.088;2023-06-14T09:41:37;7.13;;;3.90;;
9166;SDS011;4618;48.818;9.088;2023-06-14T09:44:05;6.30;;;3.63;;
9166;SDS011;4618;48.818;9.088;2023-06-14T09:46:32;6.85;;;3.53;;
9166;SDS011;4618;48.818;9.088;2023-06-14T09:48:58;7.32;;;3.47;;
9166;SDS011;4618;48.818;9.088;2023-06-14T09:51:26;4.38;;;3.53;;
9166;SDS011;4618;48.818;9.088;2023-06-14T09:53:52;3.80;;;3.45;;
9166;SDS011;4618;48.818;9.088;2023-06-14T09:56:20;3.42;;;3.03;;
9166;SDS011;4618;48.818;9.088;2023-06-14T09:58:48;3.83;;;3.42;;
9166;SDS011;4618;48.818;9.088;2023-06-14T10:01:15;5.07;;;3.30;;
9166;SDS011;4618;48.818;9.088;2023-06-14T10:03:43;4.95;;;3.20;;
9166;SDS011;4618;48.818;9.088;2023-06-14T10:06:10;3.40;;;3.08;;
9166;SDS011;4618;48.818;9.088;2023-06-14T10:08:36;6.15;;;3.33;;
9166;SDS011;4618;48.818;9.088;2023-06-14T10:11:02;3.90;;;2.97;;
9166;SDS011;4618;48.818;9.088;2023-06-14T10:13:28;3.05;;;2.65;;
9166;SDS011;4618;48.818;9.088;2023-06-14T10:16:00;4.38;;;2.92;;
9166;SDS011;4618;48.818;9.088;2023-06-14T10:18:32;3.80;;;3.20;;
9166;SDS011;4618;48.818;9.088;2023-06-14T10:23:56;5.63;;;3.00;;
9166;SDS011;4618;48.818;9.088;2023-06-14T10:26:23;4.40;;;2.83;;
9166;SDS011;4618;48.818;9.088;2023-06-14T10:29:00;3.45;;;2.70;;
9166;SDS011;4618;48.818;9.088;2023-06-14T10:31:45;8.43;;;3.30;;
9166;SDS011;4618;48.818;9.088;2023-06-14T10:34:12;5.50;;;3.13;;
9166;SDS011;4618;48.818;9.088;2023-06-14T10:36:50;5.75;;;3.10;;
9166;SDS011;4618;48.818;9.088;2023-06-14T10:39:28;3.15;;;2.92;;
9166;SDS011;4618;48.818;9.088;2023-06-14T10:41:55;3.83;;;2.88;;
9166;SDS011;4618;48.818;9.088;2023-06-14T10:46:48;4.07;;;2.47;;
9166;SDS011;4618;48.818;9.088;2023-06-14T10:49:18;5.40;;;2.63;;
9166;SDS011;4618;48.818;9.088;2023-06-14T10:51:45;5.13;;;2.88;;
9166;SDS011;4618;48.818;9.088;2023-06-14T10:54:15;4.78;;;2.78;;
9166;SDS011;4618;48.818;9.088;2023-06-14T10:56:48;5.93;;;2.90;;
9166;SDS011;4618;48.818;9.088;2023-06-14T10:59:15;5.13;;;2.78;;
9166;SDS011;4618;48.818;9.088;2023-06-14T11:04:30;4.40;;;2.95;;
9166;SDS011;4618;48.818;9.088;2023-06-14T11:10:39;5.30;;;2.95;;
9166;SDS011;4618;48.818;9.088;2023-06-14T11:13:06;4.43;;;3.30;;
9166;SDS011;4618;48.818;9.088;2023-06-14T11:15:33;4.20;;;2.90;;
9166;SDS011;4618;48.818;9.088;2023-06-14T11:18:06;3.78;;;3.08;;
9166;SDS011;4618;48.818;9.088;2023-06-14T11:20:33;4.82;;;2.85;;
9166;SDS011;4618;48.818;9.088;2023-06-14T11:23:00;4.13;;;2.80;;
9166;SDS011;4618;48.818;9.088;2023-06-14T11:25:26;5.90;;;2.88;;
9166;SDS011;4618;48.818;9.088;2023-06-14T11:27:55;5.70;;;2.60;;
9166;SDS011;4618;48.818;9.088;2023-06-14T11:30:22;6.10;;;2.92;;
9166;SDS011;4618;48.818;9.088;2023-06-14T11:32:48;6.53;;;2.60;;
9166;SDS011;4618;48.818;9.088;2023-06-14T11:35:18;4.40;;;2.72;;
9166;SDS011;4618;48.818;9.088;2023-06-14T11:37:44;6.47;;;2.80;;
9166;SDS011;4618;48.818;9.088;2023-06-14T11:40:10;4.95;;;2.53;;
9166;SDS011;4618;48.818;9.088;2023-06-14T11:42:38;4.45;;;2.85;;
9166;SDS011;4618;48.818;9.088;2023-06-14T11:45:06;2.88;;;2.60;;
9166;SDS011;4618;48.818;9.088;2023-06-14T11:47:36;4.07;;;2.70;;
9166;SDS011;4618;48.818;9.088;2023-06-14T11:50:04;6.07;;;3.03;;
9166;SDS011;4618;48.818;9.088;2023-06-14T11:52:31;3.90;;;2.72;;
9166;SDS011;4618;48.818;9.088;2023-06-14T11:54:57;3.90;;;2.78;;
9166;SDS011;4618;48.818;9.088;2023-06-14T11:57:23;3.45;;;2.55;;
9166;SDS011;4618;48.818;9.088;2023-06-14T11:59:49;4.88;;;2.55;;
9166;SDS011;4618;48.818;9.088;2023-06-14T12:02:15;7.10;;;2.72;;
9166;SDS011;4618;48.818;9.088;2023-06-14T12:04:42;4.95;;;2.42;;
9166;SDS011;4618;48.818;9.088;2023-06-14T12:07:08;2.78;;;2.58;;
9166;SDS011;4618;48.818;9.088;2023-06-14T12:10:03;3.38;;;2.60;;
9166;SDS011;4618;48.818;9.088;2023-06-14T12:12:34;3.75;;;2.50;;
9166;SDS011;4618;48.818;9.088;2023-06-14T12:15:02;3.13;;;2.83;;
9166;SDS011;4618;48.818;9.088;2023-06-14T12:17:31;3.05;;;2.50;;
9166;SDS011;4618;48.818;9.088;2023-06-14T12:19:57;7.05;;;2.75;;
9166;SDS011;4618;48.818;9.088;2023-06-14T12:22:23;6.95;;;2.90;;
9166;SDS011;4618;48.818;9.088;2023-06-14T12:24:48;4.00;;;2.80;;
9166;SDS011;4618;48.818;9.088;2023-06-14T12:27:14;4.88;;;2.47;;
9166;SDS011;4618;48.818;9.088;2023-06-14T12:29:43;2.67;;;2.47;;
9166;SDS011;4618;48.818;9.088;2023-06-14T12:32:09;4.43;;;2.75;;
9166;SDS011;4618;48.818;9.088;2023-06-14T12:34:36;4.13;;;2.45;;
9166;SDS011;4618;48.818;9.088;2023-06-14T12:37:01;3.08;;;2.42;;
9166;SDS011;4618;48.818;9.088;2023-06-14T12:39:29;4.65;;;2.60;;
9166;SDS011;4618;48.818;9.088;2023-06-14T12:41:56;4.72;;;2.72;;
9166;SDS011;4618;48.818;9.088;2023-06-14T12:44:22;4.10;;;2.70;;
9166;SDS011;4618;48.818;9.088;2023-06-14T12:46:48;3.13;;;2.53;;
9166;SDS011;4618;48.818;9.088;2023-06-14T12:49:16;3.38;;;2.60;;
9166;SDS011;4618;48.818;9.088;2023-06-14T12:51:41;3.13;;;2.50;;
9166;SDS011;4618;48.818;9.088;2023-06-14T12:54:07;3.30;;;2.50;;
9166;SDS011;4618;48.818;9.088;2023-06-14T12:56:33;4.35;;;2.40;;
9166;SDS011;4618;48.818;9.088;2023-06-14T12:58:58;5.55;;;2.67;;
9166;SDS011;4618;48.818;9.088;2023-06-14T13:01:24;5.32;;;2.65;;
9166;SDS011;4618;48.818;9.088;2023-06-14T13:03:50;4.72;;;2.88;;
9166;SDS011;4618;48.818;9.088;2023-06-14T13:06:20;4.05;;;2.83;;
9166;SDS011;4618;48.818;9.088;2023-06-14T13:08:46;4.97;;;2.47;;
9166;SDS011;4618;48.818;9.088;2023-06-14T13:11:12;3.03;;;2.60;;
9166;SDS011;4618;48.818;9.088;2023-06-14T13:13:38;3.70;;;2.75;;
9166;SDS011;4618;48.818;9.088;2023-06-14T13:16:03;4.38;;;2.72;;
9166;SDS011;4618;48.818;9.088;2023-06-14T13:18:29;6.38;;;2.50;;
9166;SDS011;4618;48.818;9.088;2023-06-14T13:20:54;3.33;;;2.60;;
9166;SDS011;4618;48.818;9.088;2023-06-14T13:23:20;2.88;;;2.60;;
9166;SDS011;4618;48.818;9.088;2023-06-14T13:25:46;3.22;;;2.92;;
9166;SDS011;4618;48.818;9.088;2023-06-14T13:28:11;4.65;;;2.90;;
9166;SDS011;4618;48.818;9.088;2023-06-14T13:30:37;2.45;;;2.30;;
9166;SDS011;4618;48.818;9.088;2023-06-14T13:33:02;2.90;;;2.67;;
9166;SDS011;4618;48.818;9.088;2023-06-14T13:35:28;3.45;;;2.50;;
9166;SDS011;4618;48.818;9.088;2023-06-14T13:37:53;4.15;;;2.60;;
9166;SDS011;4618;48.818;9.088;2023-06-14T13:40:19;4.13;;;2.50;;
9166;SDS011;4618;48.818;9.088;2023-06-14T13:42:45;5.00;;;2.45;;
9166;SDS011;4618;48.818;9.088;2023-06-14T13:45:11;2.67;;;2.35;;
9166;SDS011;4618;48.818;9.088;2023-06-14T13:47:37;2.70;;;2.50;;
9166;SDS011;4618;48.818;9.088;2023-06-14T13:50:03;2.50;;;2.30;;
9166;SDS011;4618;48.818;9.088;2023-06-14T13:52:30;2.90;;;2.60;;
9166;SDS011;4618;48.818;9.088;2023-06-14T13:54:55;2.80;;;2.60;;
9166;SDS011;4618;48.818;9.088;2023-06-14T13:57:21;2.67;;;2.50;;
9166;SDS011;4618;48.818;9.088;2023-06-14T13:59:46;3.10;;;2.70;;
9166;SDS011;4618;48.818;9.088;2023-06-14T14:02:12;5.38;;;2.55;;
9166;SDS011;4618;48.818;9.088;2023-06-14T14:04:38;2.65;;;2.45;;
9166;SDS011;4618;48.818;9.088;2023-06-14T14:07:04;5.28;;;2.60;;
9166;SDS011;4618;48.818;9.088;2023-06-14T14:09:31;4.00;;;2.55;;
9166;SDS011;4618;48.818;9.088;2023-06-14T14:11:58;6.20;;;2.50;;
9166;SDS011;4618;48.818;9.088;2023-06-14T14:14:23;5.63;;;2.70;;
9166;SDS011;4618;48.818;9.088;2023-06-14T14:16:49;2.97;;;2.63;;
9166;SDS011;4618;48.818;9.088;2023-06-14T14:19:19;4.07;;;2.58;;
9166;SDS011;4618;48.818;9.088;2023-06-14T14:21:48;3.45;;;2.63;;
9166;SDS011;4618;48.818;9.088;2023-06-14T14:24:14;4.10;;;2.65;;
9166;SDS011;4618;48.818;9.088;2023-06-14T14:26:40;3.95;;;2.58;;
9166;SDS011;4618;48.818;9.088;2023-06-14T14:29:06;5.00;;;2.78;;
9166;SDS011;4618;48.818;9.088;2023-06-14T14:31:32;4.60;;;2.40;;
9166;SDS011;4618;48.818;9.088;2023-06-14T14:33:57;2.90;;;2.70;;
9166;SDS011;4618;48.818;9.088;2023-06-14T14:36:23;4.82;;;2.70;;
9166;SDS011;4618;48.818;9.088;2023-06-14T14:38:49;4.88;;;2.60;;
9166;SDS011;4618;48.818;9.088;2023-06-14T14:41:16;4.63;;;3.00;;
9166;SDS011;4618;48.818;9.088;2023-06-14T14:43:42;4.05;;;2.35;;
9166;SDS011;4618;48.818;9.088;2023-06-14T14:46:08;5.18;;;2.88;;
9166;SDS011;4618;48.818;9.088;2023-06-14T14:48:34;5.93;;;2.85;;
9166;SDS011;4618;48.818;9.088;2023-06-14T14:51:00;4.43;;;2.70;;
9166;SDS011;4618;48.818;9.088;2023-06-14T14:53:25;3.92;;;2.60;;
9166;SDS011;4618;48.818;9.088;2023-06-14T14:55:51;6.43;;;2.90;;
9166;SDS011;4618;48.818;9.088;2023-06-14T14:58:16;2.70;;;2.40;;
9166;SDS011;4618;48.818;9.088;2023-06-14T15:00:43;4.68;;;2.63;;
9166;SDS011;4618;48.818;9.088;2023-06-14T15:03:09;7.20;;;3.08;;
9166;SDS011;4618;48.818;9.088;2023-06-14T15:05:35;5.75;;;2.80;;
9166;SDS011;4618;48.818;9.088;2023-06-14T15:08:02;4.50;;;2.80;;
9166;SDS011;4618;48.818;9.088;2023-06-14T15:10:28;5.05;;;2.60;;
9166;SDS011;4618;48.818;9.088;2023-06-14T15:12:53;3.33;;;3.00;;
9166;SDS011;4618;48.818;9.088;2023-06-14T15:15:19;2.83;;;2.25;;
9166;SDS011;4618;48.818;9.088;2023-06-14T15:17:44;3.53;;;3.00;;
9166;SDS011;4618;48.818;9.088;2023-06-14T15:20:10;4.82;;;2.88;;
9166;SDS011;4618;48.818;9.088;2023-06-14T15:22:37;2.97;;;2.67;;
9166;SDS011;4618;48.818;9.088;2023-06-14T15:25:03;5.82;;;2.70;;
9166;SDS011;4618;48.818;9.088;2023-06-14T15:27:29;6.28;;;2.78;;